createdAt,value
2023-01-13T00:01:29.384Z,1.90
2023-01-13T00:03:57.513Z,2.23
2023-01-13T00:06:29.384Z,2.37
2023-01-13T00:08:58.010Z,1.63
2023-01-13T00:11:26.460Z,1.90
2023-01-13T00:13:54.457Z,2.00
2023-01-13T00:16:21.521Z,2.77
2023-01-13T00:18:51.554Z,2.50
2023-01-13T00:21:23.600Z,2.03
2023-01-13T00:23:54.065Z,2.10
2023-01-13T00:26:28.090Z,2.20
2023-01-13T00:29:00.031Z,2.00
2023-01-13T00:31:29.559Z,2.10
2023-01-13T00:34:01.126Z,2.10
2023-01-13T00:36:29.756Z,1.70
2023-01-13T00:38:57.194Z,2.10
2023-01-13T00:41:26.299Z,2.40
2023-01-13T00:43:53.852Z,1.93
2023-01-13T00:46:23.024Z,2.30
2023-01-13T00:48:51.744Z,2.67
2023-01-13T00:51:21.446Z,1.97
2023-01-13T00:53:52.050Z,1.87
2023-01-13T00:56:38.635Z,1.93
2023-01-13T00:59:11.454Z,2.03
2023-01-13T01:01:38.789Z,1.80
2023-01-13T01:04:06.965Z,2.17
2023-01-13T01:06:34.150Z,1.83
2023-01-13T01:09:01.126Z,2.00
2023-01-13T01:11:32.442Z,1.73
2023-01-13T01:14:02.868Z,2.50
2023-01-13T01:16:32.276Z,2.40
2023-01-13T01:19:00.774Z,2.00
2023-01-13T01:21:29.395Z,1.80
2023-01-13T01:24:01.411Z,2.27
2023-01-13T01:26:30.870Z,2.17
2023-01-13T01:28:57.926Z,1.80
2023-01-13T01:31:32.158Z,2.00
2023-01-13T01:34:00.687Z,1.53
2023-01-13T01:36:30.349Z,2.03
2023-01-13T01:38:59.362Z,2.20
2023-01-13T01:41:30.704Z,1.97
2023-01-13T01:44:22.885Z,2.10
2023-01-13T01:46:49.938Z,1.70
2023-01-13T01:49:35.876Z,1.90
2023-01-13T01:52:09.777Z,2.00
2023-01-13T01:54:58.971Z,2.10
2023-01-13T01:57:39.120Z,1.63
2023-01-13T02:00:07.174Z,1.50
2023-01-13T02:02:34.464Z,1.67
2023-01-13T02:05:01.775Z,1.63
2023-01-13T02:07:32.472Z,1.60
2023-01-13T02:10:06.850Z,1.87
2023-01-13T02:12:35.700Z,1.37
2023-01-13T02:15:10.572Z,1.83
2023-01-13T02:17:58.258Z,1.93
2023-01-13T02:20:44.644Z,1.80
2023-01-13T02:24:13.710Z,1.97
2023-01-13T02:27:05.263Z,1.90
2023-01-13T02:30:23.856Z,1.47
2023-01-13T02:33:15.635Z,1.47
2023-01-13T02:36:18.459Z,2.00
2023-01-13T02:38:57.504Z,1.70
2023-01-13T02:42:01.200Z,1.57
2023-01-13T02:44:52.645Z,1.70
2023-01-13T02:47:24.905Z,1.90
2023-01-13T02:50:13.167Z,2.10
2023-01-13T02:52:56.689Z,1.70
2023-01-13T02:55:33.476Z,1.50
2023-01-13T02:58:04.353Z,2.47
2023-01-13T03:00:33.621Z,1.50
2023-01-13T03:03:01.851Z,1.63
2023-01-13T03:05:32.335Z,1.50
2023-01-13T03:08:46.914Z,1.77
2023-01-13T03:11:17.079Z,1.70
2023-01-13T03:14:04.819Z,1.30
2023-01-13T03:17:23.119Z,1.90
2023-01-13T03:20:02.456Z,1.50
2023-01-13T03:22:43.821Z,1.37
2023-01-13T03:25:16.677Z,1.40
2023-01-13T03:27:54.210Z,1.50
2023-01-13T03:30:31.016Z,1.57
2023-01-13T03:33:08.555Z,1.60
2023-01-13T03:35:44.810Z,1.90
2023-01-13T03:38:33.933Z,1.70
2023-01-13T03:41:19.516Z,1.40
2023-01-13T03:44:21.862Z,1.50
2023-01-13T03:46:57.750Z,1.57
2023-01-13T03:49:32.890Z,1.53
2023-01-13T03:52:06.416Z,1.43
2023-01-13T03:54:43.123Z,2.40
2023-01-13T03:57:14.422Z,1.70
2023-01-13T03:59:47.725Z,1.63
2023-01-13T04:02:29.522Z,1.83
2023-01-13T04:05:04.260Z,1.40
2023-01-13T04:07:52.908Z,2.30
2023-01-13T04:10:32.109Z,1.20
2023-01-13T04:13:08.203Z,1.80
2023-01-13T04:15:41.058Z,1.40
2023-01-13T04:18:22.736Z,1.03
2023-01-13T04:20:52.739Z,2.70
2023-01-13T04:23:22.052Z,1.57
2023-01-13T04:25:50.281Z,1.53
2023-01-13T04:28:19.110Z,1.27
2023-01-13T04:30:46.837Z,1.50
2023-01-13T04:33:15.646Z,1.70
2023-01-13T04:35:45.942Z,1.33
2023-01-13T04:38:19.849Z,1.50
2023-01-13T04:40:47.114Z,1.60
2023-01-13T04:43:15.990Z,1.57
2023-01-13T04:45:44.054Z,1.30
2023-01-13T04:48:11.496Z,1.50
2023-01-13T04:50:38.979Z,1.20
2023-01-13T04:53:06.029Z,1.60
2023-01-13T04:55:33.244Z,1.50
2023-01-13T04:58:06.000Z,1.60
2023-01-13T05:00:33.555Z,1.23
2023-01-13T05:03:01.163Z,1.80
2023-01-13T05:05:30.850Z,1.80
2023-01-13T05:07:58.260Z,2.33
2023-01-13T05:10:26.826Z,4.87
2023-01-13T05:13:12.424Z,3.80
2023-01-13T05:16:02.713Z,2.17
2023-01-13T05:18:31.665Z,2.70
2023-01-13T05:20:58.632Z,1.77
2023-01-13T05:23:44.119Z,1.70
2023-01-13T05:26:11.119Z,1.60
2023-01-13T05:28:38.025Z,1.67
2023-01-13T05:31:05.095Z,1.53
2023-01-13T05:33:33.161Z,1.70
2023-01-13T05:36:03.390Z,1.80
2023-01-13T05:38:30.273Z,1.70
2023-01-13T05:41:19.089Z,2.00
2023-01-13T05:43:46.418Z,2.00
2023-01-13T05:46:15.197Z,2.27
2023-01-13T05:48:43.881Z,1.53
2023-01-13T05:51:13.122Z,1.40
2023-01-13T05:53:41.232Z,1.73
2023-01-13T05:56:09.620Z,1.87
2023-01-13T05:58:37.289Z,1.63
2023-01-13T06:01:07.966Z,2.00
2023-01-13T06:03:35.457Z,2.10
2023-01-13T06:06:04.376Z,1.97
2023-01-13T06:08:32.353Z,1.83
2023-01-13T06:10:59.471Z,2.00
2023-01-13T06:13:26.431Z,1.73
2023-01-13T06:15:58.728Z,1.80
2023-01-13T06:18:27.839Z,1.70
2023-01-13T06:20:55.600Z,1.73
2023-01-13T06:23:22.825Z,1.70
2023-01-13T06:26:00.907Z,1.90
2023-01-13T06:28:27.936Z,2.17
2023-01-13T06:31:01.329Z,1.73
2023-01-13T06:33:34.771Z,1.80
2023-01-13T06:36:17.159Z,2.77
2023-01-13T06:38:48.965Z,2.10
2023-01-13T06:41:17.154Z,2.57
2023-01-13T06:43:44.132Z,3.73
2023-01-13T06:46:11.139Z,2.63
2023-01-13T06:48:38.184Z,2.80
2023-01-13T06:51:05.632Z,2.80
2023-01-13T06:53:33.226Z,2.47
2023-01-13T06:56:00.328Z,2.80
2023-01-13T06:58:27.235Z,2.63
2023-01-13T07:00:54.381Z,2.70
2023-01-13T07:03:21.808Z,2.50
2023-01-13T07:05:54.454Z,2.50
2023-01-13T07:08:23.675Z,2.90
2023-01-13T07:10:51.441Z,2.67
2023-01-13T07:13:37.404Z,2.17
2023-01-13T07:16:07.628Z,2.13
2023-01-13T07:18:36.376Z,2.30
2023-01-13T07:21:08.320Z,2.03
2023-01-13T07:23:40.028Z,2.17
2023-01-13T07:26:10.194Z,1.97
2023-01-13T07:28:38.953Z,2.33
2023-01-13T07:31:14.843Z,3.13
2023-01-13T07:33:41.812Z,2.60
2023-01-13T07:36:09.575Z,2.70
2023-01-13T07:38:36.540Z,3.57
2023-01-13T07:41:23.483Z,2.97
2023-01-13T07:43:52.260Z,2.80
2023-01-13T07:46:19.528Z,2.73
2023-01-13T07:48:49.227Z,3.53
2023-01-13T07:51:16.190Z,4.37
2023-01-13T07:53:43.189Z,3.90
2023-01-13T07:56:10.281Z,3.60
2023-01-13T07:58:37.992Z,3.50
2023-01-13T08:01:13.128Z,2.90
2023-01-13T08:03:40.849Z,2.57
2023-01-13T08:06:08.615Z,2.00
2023-01-13T08:08:36.490Z,2.93
2023-01-13T08:11:06.794Z,2.30
2023-01-13T08:13:35.240Z,2.70
2023-01-13T08:16:07.322Z,2.40
2023-01-13T08:18:35.563Z,2.70
2023-01-13T08:21:12.436Z,2.97
2023-01-13T08:23:43.578Z,2.70
2023-01-13T08:26:14.421Z,3.47
2023-01-13T08:28:41.472Z,2.80
2023-01-13T08:31:12.746Z,4.10
2023-01-13T08:33:40.512Z,4.70
2023-01-13T08:36:12.692Z,4.20
2023-01-13T08:38:41.013Z,5.63
2023-01-13T08:41:36.942Z,5.40
2023-01-13T08:44:05.038Z,6.80
2023-01-13T08:46:32.075Z,6.13
2023-01-13T08:48:59.095Z,7.57
2023-01-13T08:51:27.561Z,6.00
2023-01-13T08:53:55.934Z,6.20
2023-01-13T08:56:23.033Z,5.30
2023-01-13T08:58:50.041Z,6.10
2023-01-13T09:01:23.595Z,7.50
2023-01-13T09:03:50.638Z,8.63
2023-01-13T09:06:18.176Z,8.50
2023-01-13T09:08:45.538Z,8.43
2023-01-13T09:11:40.371Z,6.77
2023-01-13T09:14:07.317Z,7.80
2023-01-13T09:16:34.382Z,8.50
2023-01-13T09:19:01.327Z,6.50
2023-01-13T09:21:28.336Z,5.70
2023-01-13T09:23:55.270Z,4.53
2023-01-13T09:26:22.262Z,4.60
2023-01-13T09:28:49.304Z,5.13
2023-01-13T09:31:16.341Z,5.53
2023-01-13T09:34:02.018Z,5.60
2023-01-13T09:36:28.975Z,5.63
2023-01-13T09:38:55.984Z,6.30
2023-01-13T09:41:45.387Z,7.17
2023-01-13T09:45:05.368Z,7.30
2023-01-13T09:48:21.982Z,9.67
2023-01-13T09:50:55.519Z,7.13
2023-01-13T09:53:30.602Z,7.23
2023-01-13T09:55:57.692Z,8.23
2023-01-13T09:58:25.180Z,6.80
2023-01-13T10:01:32.516Z,6.30
2023-01-13T10:04:15.095Z,6.50
2023-01-13T10:06:51.135Z,6.40
2023-01-13T10:09:48.430Z,6.33
2023-01-13T10:12:42.538Z,5.87
2023-01-13T10:15:26.229Z,4.87
2023-01-13T10:18:12.801Z,4.40
2023-01-13T10:20:50.956Z,5.10
2023-01-13T10:24:22.156Z,5.70
2023-01-13T10:27:08.422Z,4.37
2023-01-13T10:29:37.037Z,2.60
2023-01-13T10:32:04.495Z,3.40
2023-01-13T10:34:31.449Z,3.70
2023-01-13T10:37:09.090Z,3.93
2023-01-13T10:39:45.427Z,4.03
2023-01-13T10:42:17.021Z,3.40
2023-01-13T10:45:04.014Z,3.20
2023-01-13T10:47:37.159Z,2.93
2023-01-13T10:50:13.417Z,2.57
2023-01-13T10:52:56.563Z,2.87
2023-01-13T10:55:28.943Z,3.37
2023-01-13T10:57:56.699Z,3.43
2023-01-13T11:00:33.474Z,3.40
2023-01-13T11:03:24.677Z,3.50
2023-01-13T11:05:56.963Z,3.17
2023-01-13T11:08:52.974Z,2.83
2023-01-13T11:11:25.918Z,3.20
2023-01-13T11:14:15.652Z,3.70
2023-01-13T11:20:23.303Z,3.80
2023-01-13T11:22:56.040Z,4.40
2023-01-13T11:25:46.965Z,4.27
2023-01-13T11:28:43.404Z,4.10
2023-01-13T11:31:30.655Z,4.33
2023-01-13T11:34:14.095Z,3.80
2023-01-13T11:36:55.951Z,4.27
2023-01-13T11:39:50.031Z,4.13
2023-01-13T11:42:50.196Z,4.07
2023-01-13T11:45:43.455Z,3.80
2023-01-13T11:48:18.440Z,4.63
2023-01-13T11:50:45.503Z,4.20
2023-01-13T11:53:28.780Z,4.07
2023-01-13T11:56:35.080Z,4.60
2023-01-13T11:59:35.400Z,3.60
2023-01-13T12:02:24.094Z,3.73
2023-01-13T12:05:24.026Z,3.73
2023-01-13T12:08:18.381Z,4.00
2023-01-13T12:11:17.290Z,4.33
2023-01-13T12:14:00.995Z,4.33
2023-01-13T12:16:32.228Z,12.80
2023-01-13T12:19:17.454Z,6.93
2023-01-13T12:22:25.656Z,4.40
2023-01-13T12:25:29.709Z,5.00
2023-01-13T12:28:07.844Z,3.27
2023-01-13T12:30:41.929Z,3.30
2023-01-13T12:34:18.968Z,3.10
2023-01-13T12:37:05.725Z,2.50
2023-01-13T12:40:03.423Z,4.53
2023-01-13T12:43:06.909Z,3.97
2023-01-13T12:45:34.669Z,3.33
2023-01-13T12:48:01.861Z,3.10
2023-01-13T12:50:29.375Z,3.30
2023-01-13T12:53:29.000Z,3.43
2023-01-13T12:56:25.050Z,3.57
2023-01-13T12:58:52.109Z,2.70
2023-01-13T13:01:35.376Z,3.10
2023-01-13T13:04:15.358Z,3.00
2023-01-13T13:06:51.625Z,2.90
2023-01-13T13:09:28.914Z,2.63
2023-01-13T13:11:58.789Z,2.97
2023-01-13T13:14:38.239Z,2.90
2023-01-13T13:17:30.085Z,3.07
2023-01-13T13:19:59.219Z,3.70
2023-01-13T13:22:41.875Z,2.50
2023-01-13T13:25:23.457Z,2.73
2023-01-13T13:28:13.037Z,2.63
2023-01-13T13:30:52.882Z,2.63
2023-01-13T13:33:48.251Z,2.77
2023-01-13T13:36:36.375Z,2.30
2023-01-13T13:39:43.557Z,2.93
2023-01-13T13:42:31.775Z,2.70
2023-01-13T13:45:20.870Z,3.07
2023-01-13T13:47:47.873Z,2.47
2023-01-13T13:50:20.809Z,2.80
2023-01-13T13:53:01.465Z,3.13
2023-01-13T13:55:30.343Z,2.50
2023-01-13T13:57:59.372Z,2.00
2023-01-13T14:00:34.866Z,1.93
2023-01-13T14:03:07.167Z,2.97
2023-01-13T14:05:38.256Z,16.23
2023-01-13T14:08:18.537Z,5.87
2023-01-13T14:10:46.606Z,14.37
2023-01-13T14:13:21.581Z,2.03
2023-01-13T14:16:06.269Z,1.00
2023-01-13T14:18:46.154Z,0.73
2023-01-13T14:21:13.135Z,1.20
2023-01-13T14:23:40.253Z,1.50
2023-01-13T14:26:13.165Z,1.43
2023-01-13T14:28:42.118Z,1.20
2023-01-13T14:31:10.901Z,1.30
2023-01-13T14:33:54.361Z,1.73
2023-01-13T14:36:33.323Z,1.73
2023-01-13T14:39:06.027Z,1.57
2023-01-13T14:41:39.961Z,1.53
2023-01-13T14:44:27.326Z,1.70
2023-01-13T14:47:22.653Z,8.07
2023-01-13T14:50:31.628Z,8.43
2023-01-13T14:53:00.852Z,6.27
2023-01-13T14:55:40.879Z,4.20
2023-01-13T14:58:37.610Z,1.87
2023-01-13T15:01:36.595Z,2.17
2023-01-13T15:04:23.513Z,1.20
2023-01-13T15:06:55.512Z,1.60
2023-01-13T15:09:43.061Z,2.10
2023-01-13T15:12:36.025Z,1.70
2023-01-13T15:15:06.525Z,1.40
2023-01-13T15:17:34.684Z,1.10
2023-01-13T15:20:03.257Z,1.20
2023-01-13T15:22:30.307Z,0.93
2023-01-13T15:24:57.622Z,0.77
2023-01-13T15:27:26.534Z,1.80
2023-01-13T15:29:53.536Z,2.07
2023-01-13T15:32:22.503Z,1.87
2023-01-13T15:34:49.460Z,13.60
2023-01-13T15:37:17.442Z,3.40
2023-01-13T15:39:44.309Z,1.43
2023-01-13T15:42:32.756Z,1.83
2023-01-13T15:45:18.124Z,0.90
2023-01-13T15:47:45.541Z,1.07
2023-01-13T15:50:18.674Z,1.00
2023-01-13T15:52:45.655Z,1.53
2023-01-13T15:55:12.632Z,1.70
2023-01-13T15:57:47.774Z,1.00
2023-01-13T16:00:21.778Z,1.20
2023-01-13T16:02:50.157Z,1.70
2023-01-13T16:05:17.664Z,0.90
2023-01-13T16:07:44.599Z,1.00
2023-01-13T16:10:28.112Z,0.70
2023-01-13T16:12:58.678Z,1.07
2023-01-13T16:15:26.345Z,1.17
2023-01-13T16:18:00.076Z,0.80
2023-01-13T16:20:27.865Z,0.97
2023-01-13T16:22:54.815Z,0.93
2023-01-13T16:25:26.160Z,1.20
2023-01-13T16:27:53.753Z,1.33
2023-01-13T16:30:28.129Z,1.20
2023-01-13T16:32:55.829Z,1.10
2023-01-13T16:35:24.681Z,1.20
2023-01-13T16:37:54.065Z,1.03
2023-01-13T16:40:31.233Z,1.30
2023-01-13T16:43:01.954Z,1.50
2023-01-13T16:45:31.113Z,1.80
2023-01-13T16:47:58.091Z,1.73
2023-01-13T16:50:33.802Z,1.20
2023-01-13T16:53:00.821Z,1.17
2023-01-13T16:55:28.002Z,1.77
2023-01-13T16:57:55.231Z,12.37
2023-01-13T17:00:23.168Z,11.50
2023-01-13T17:02:51.234Z,7.80
2023-01-13T17:05:18.716Z,3.53
2023-01-13T17:07:48.013Z,3.50
2023-01-13T17:10:24.529Z,4.47
2023-01-13T17:12:51.867Z,2.17
2023-01-13T17:15:20.000Z,1.80
2023-01-13T17:17:52.103Z,1.40
2023-01-13T17:20:19.648Z,11.33
2023-01-13T17:22:49.791Z,1.77
2023-01-13T17:25:21.879Z,1.30
2023-01-13T17:27:48.817Z,1.10
2023-01-13T17:30:16.239Z,1.77
2023-01-13T17:32:43.202Z,1.70
2023-01-13T17:35:10.622Z,1.30
2023-01-13T17:37:37.522Z,2.30
2023-01-13T17:40:05.310Z,2.60
2023-01-13T17:42:35.140Z,3.90
2023-01-13T17:45:02.047Z,2.17
2023-01-13T17:47:29.066Z,2.77
2023-01-13T17:49:55.985Z,1.40
2023-01-13T17:52:23.016Z,2.00
2023-01-13T17:54:49.949Z,1.20
2023-01-13T17:57:16.867Z,1.20
2023-01-13T17:59:43.929Z,1.30
2023-01-13T18:02:12.968Z,1.27
2023-01-13T18:04:41.043Z,1.40
2023-01-13T18:07:08.198Z,1.20
2023-01-13T18:09:35.092Z,1.40
2023-01-13T18:12:02.340Z,1.70
2023-01-13T18:14:29.294Z,1.97
2023-01-13T18:16:56.358Z,1.80
2023-01-13T18:19:42.454Z,2.10
2023-01-13T18:22:34.103Z,4.60
2023-01-13T18:25:21.860Z,2.20
2023-01-13T18:27:48.968Z,1.67
2023-01-13T18:30:16.482Z,1.20
2023-01-13T18:32:43.511Z,1.20
2023-01-13T18:35:11.106Z,2.13
2023-01-13T18:37:42.263Z,1.37
2023-01-13T18:40:13.780Z,1.50
2023-01-13T18:42:59.192Z,1.73
2023-01-13T18:45:32.429Z,1.70
2023-01-13T18:48:02.615Z,1.47
2023-01-13T18:50:30.754Z,2.33
2023-01-13T18:52:58.202Z,1.97
2023-01-13T18:55:25.788Z,1.30
2023-01-13T18:57:53.837Z,1.40
2023-01-13T19:00:23.376Z,2.43
2023-01-13T19:05:34.659Z,1.50
2023-01-13T19:08:02.334Z,1.10
2023-01-13T19:10:32.266Z,1.97
2023-01-13T19:12:59.415Z,2.70
2023-01-13T19:15:26.459Z,1.60
2023-01-13T19:17:53.441Z,1.80
2023-01-13T19:20:20.613Z,1.50
2023-01-13T19:22:54.228Z,1.73
2023-01-13T19:25:21.355Z,2.00
2023-01-13T19:27:48.339Z,1.80
2023-01-13T19:30:15.385Z,2.43
2023-01-13T19:32:42.459Z,2.70
2023-01-13T19:35:09.779Z,1.70
2023-01-13T19:37:37.107Z,1.70
2023-01-13T19:40:09.532Z,1.87
2023-01-13T19:42:55.616Z,1.30
2023-01-13T19:45:29.696Z,1.77
2023-01-13T19:48:01.999Z,1.57
2023-01-13T19:50:29.315Z,1.67
2023-01-13T19:52:56.376Z,1.70
2023-01-13T19:55:23.517Z,1.30
2023-01-13T19:57:50.581Z,1.57
2023-01-13T20:00:20.976Z,1.80
2023-01-13T20:02:52.092Z,1.80
2023-01-13T20:05:24.583Z,1.90
2023-01-13T20:07:52.365Z,1.60
2023-01-13T20:10:22.036Z,2.50
2023-01-13T20:12:49.043Z,2.40
2023-01-13T20:15:16.886Z,1.90
2023-01-13T20:17:44.624Z,2.00
2023-01-13T20:20:12.290Z,2.10
2023-01-13T20:22:40.143Z,2.13
2023-01-13T20:25:09.096Z,2.00
2023-01-13T20:27:37.360Z,1.30
2023-01-13T20:30:06.815Z,1.13
2023-01-13T20:32:34.508Z,1.33
2023-01-13T20:35:01.586Z,1.10
2023-01-13T20:37:28.616Z,1.23
2023-01-13T20:39:57.897Z,1.33
2023-01-13T20:42:31.743Z,1.57
2023-01-13T20:45:00.691Z,1.80
2023-01-13T20:47:30.077Z,1.93
2023-01-13T20:49:57.303Z,3.00
2023-01-13T20:52:24.778Z,3.00
2023-01-13T20:54:52.023Z,1.60
2023-01-13T20:57:19.029Z,1.60
2023-01-13T20:59:45.963Z,1.27
2023-01-13T21:02:15.935Z,2.00
2023-01-13T21:04:43.970Z,1.50
2023-01-13T21:07:11.133Z,2.17
2023-01-13T21:09:38.179Z,1.80
2023-01-13T21:12:25.200Z,1.60
2023-01-13T21:15:30.950Z,1.63
2023-01-13T21:18:16.581Z,1.60
2023-01-13T21:20:43.867Z,1.17
2023-01-13T21:23:11.052Z,0.97
2023-01-13T21:25:39.934Z,1.20
2023-01-13T21:28:08.432Z,1.17
2023-01-13T21:30:38.442Z,1.13
2023-01-13T21:33:06.452Z,1.40
2023-01-13T21:35:33.886Z,1.30
2023-01-13T21:38:00.951Z,1.60
2023-01-13T21:40:28.219Z,1.73
2023-01-13T21:43:13.810Z,1.60
2023-01-13T21:45:59.802Z,1.40
2023-01-13T21:48:26.988Z,1.40
2023-01-13T21:50:53.961Z,1.53
2023-01-13T21:53:20.961Z,1.83
2023-01-13T21:55:52.733Z,1.40
2023-01-13T21:58:19.713Z,1.10
2023-01-13T22:00:49.356Z,1.50
2023-01-13T22:03:18.473Z,1.40
2023-01-13T22:05:46.320Z,2.00
2023-01-13T22:08:13.795Z,1.63
2023-01-13T22:10:58.237Z,1.90
2023-01-13T22:13:45.841Z,2.20
2023-01-13T22:16:13.744Z,1.67
2023-01-13T22:18:40.662Z,1.60
2023-01-13T22:21:07.780Z,2.03
2023-01-13T22:23:34.685Z,1.83
2023-01-13T22:26:06.648Z,1.90
2023-01-13T22:28:40.480Z,2.70
2023-01-13T22:31:15.820Z,1.77
2023-01-13T22:33:47.163Z,1.97
2023-01-13T22:36:15.866Z,2.10
2023-01-13T22:38:42.923Z,1.60
2023-01-13T22:41:10.292Z,2.00
2023-01-13T22:43:38.638Z,2.10
2023-01-13T22:46:13.600Z,1.60
2023-01-13T22:48:41.948Z,2.00
2023-01-13T22:51:17.204Z,1.60
2023-01-13T22:53:44.279Z,1.83
2023-01-13T22:56:19.383Z,2.13
2023-01-13T22:58:46.708Z,2.07
2023-01-13T23:01:17.312Z,1.67
2023-01-13T23:03:47.993Z,2.13
2023-01-13T23:06:18.277Z,1.83
2023-01-13T23:08:46.337Z,2.20
2023-01-13T23:11:16.799Z,1.97
2023-01-13T23:13:44.833Z,1.73
2023-01-13T23:16:17.160Z,1.10
2023-01-13T23:18:48.039Z,1.83
2023-01-13T23:21:22.988Z,1.00
2023-01-13T23:23:51.021Z,0.97
2023-01-13T23:26:19.453Z,0.90
2023-01-13T23:28:47.205Z,1.03
2023-01-13T23:31:21.754Z,0.80
2023-01-13T23:33:49.743Z,0.87
2023-01-13T23:36:21.404Z,1.37
2023-01-13T23:38:48.459Z,0.97
2023-01-13T23:41:21.799Z,1.00
2023-01-13T23:44:00.313Z,1.00
2023-01-13T23:46:29.887Z,0.80
2023-01-13T23:48:57.003Z,0.80
2023-01-13T23:51:26.120Z,0.90
2023-01-13T23:53:53.284Z,1.37
2023-01-13T23:56:25.226Z,0.97
2023-01-13T23:58:52.546Z,0.90
